Time;durP1;ratioP1;P1;durP2;ratioP2;P2;SDS_P1;SDS_P2;PMS_P1;PMS_P2;Temp;Humidity;BMP_temperature;BMP_pressure;BME280_temperature;BME280_humidity;BME280_pressure;Samples;Min_cycle;Max_cycle;Signal;HPM_P1;HPM_P2
2022/04/15 00:00:47;;;;;;;27.97;11.33;;;;;;;7.33;100.00;101681.72;5020972;28;20037;-79
2022/04/15 00:03:12;;;;;;;23.97;11.07;;;;;;;7.39;100.00;101675.91;5017425;28;20026;-78
2022/04/15 00:05:40;;;;;;;29.53;12.80;;;;;;;7.33;100.00;101676.41;4999353;28;20192;-79
2022/04/15 00:08:13;;;;;;;23.77;11.18;;;;;;;7.36;100.00;101681.47;5010593;28;20033;-79
2022/04/15 00:10:45;;;;;;;26.52;12.55;;;;;;;7.40;100.00;101688.25;5023465;28;20033;-79
2022/04/15 00:13:12;;;;;;;22.30;11.45;;;;;;;7.43;100.00;101677.38;5003681;28;20034;-79
2022/04/15 00:15:39;;;;;;;21.52;10.38;;;;;;;7.48;100.00;101679.66;5024837;28;20516;-79
2022/04/15 00:18:04;;;;;;;21.58;11.90;;;;;;;7.45;100.00;101669.28;5020909;28;21016;-78
2022/04/15 00:20:30;;;;;;;24.02;10.15;;;;;;;7.48;100.00;101667.22;5007027;28;20118;-79
2022/04/15 00:22:58;;;;;;;21.33;12.00;;;;;;;7.44;100.00;101667.56;5025917;28;20123;-79
2022/04/15 00:25:24;;;;;;;25.90;10.82;;;;;;;7.45;100.00;101670.13;5007813;28;20025;-79
2022/04/15 00:27:49;;;;;;;30.23;11.20;;;;;;;7.37;100.00;101669.84;5027384;28;20224;-79
2022/04/15 00:30:15;;;;;;;24.83;10.43;;;;;;;7.40;100.00;101673.13;5025079;28;20037;-79
2022/04/15 00:32:41;;;;;;;21.00;10.40;;;;;;;7.39;100.00;101670.59;5023624;28;20083;-79
2022/04/15 00:35:07;;;;;;;24.45;9.98;;;;;;;7.37;100.00;101678.69;5006766;28;20025;-79
2022/04/15 00:37:32;;;;;;;18.65;10.27;;;;;;;7.49;100.00;101676.91;5026302;28;20087;-79
2022/04/15 00:40:00;;;;;;;27.23;10.80;;;;;;;7.44;100.00;101689.66;5008241;28;20402;-79
2022/04/15 00:42:26;;;;;;;21.55;10.75;;;;;;;7.41;100.00;101673.97;5022797;28;20410;-79
2022/04/15 00:45:00;;;;;;;21.43;10.23;;;;;;;7.48;100.00;101684.97;5020234;28;20030;-79
2022/04/15 00:47:51;;;;;;;24.38;11.45;;;;;;;7.43;100.00;101692.47;5031494;28;20068;-79
2022/04/15 00:50:26;;;;;;;23.27;11.35;;;;;;;7.37;100.00;101684.00;5018731;28;20073;-79
2022/04/15 00:52:53;;;;;;;19.00;10.57;;;;;;;7.52;100.00;101687.28;5023784;28;20445;-79
2022/04/15 00:55:21;;;;;;;22.55;9.50;;;;;;;7.43;100.00;101693.31;5023471;28;20022;-79
2022/04/15 00:57:50;;;;;;;18.20;10.27;;;;;;;7.47;100.00;101689.44;5019463;28;20060;-79
2022/04/15 01:00:16;;;;;;;20.55;10.27;;;;;;;7.46;100.00;101701.03;5019252;28;20029;-79
2022/04/15 01:02:43;;;;;;;26.70;11.48;;;;;;;7.38;100.00;101703.44;4998034;28;20060;-79
2022/04/15 01:05:09;;;;;;;19.52;10.63;;;;;;;7.40;100.00;101694.38;5020788;28;20145;-79
2022/04/15 01:07:47;;;;;;;24.65;11.85;;;;;;;7.42;100.00;101699.56;5012858;28;20053;-79
2022/04/15 01:10:13;;;;;;;18.95;10.57;;;;;;;7.52;100.00;101694.41;5021799;28;20040;-79
2022/04/15 01:12:43;;;;;;;20.35;9.93;;;;;;;7.42;100.00;101699.56;5024127;28;20014;-79
2022/04/15 01:15:10;;;;;;;22.75;11.07;;;;;;;7.44;100.00;101694.97;5019109;28;20034;-79
2022/04/15 01:17:36;;;;;;;23.42;12.82;;;;;;;7.38;100.00;101691.00;5019576;28;20037;-79
2022/04/15 01:20:04;;;;;;;27.13;11.32;;;;;;;7.41;100.00;101700.53;5019079;28;20034;-79
2022/04/15 01:22:38;;;;;;;20.08;11.60;;;;;;;7.40;100.00;101694.38;5022267;28;20475;-79
2022/04/15 01:25:08;;;;;;;25.98;11.48;;;;;;;7.48;100.00;101711.53;5017466;28;20361;-79
2022/04/15 01:27:37;;;;;;;21.55;11.25;;;;;;;7.45;100.00;101709.13;5020850;28;20025;-79
2022/04/15 01:30:05;;;;;;;24.60;11.30;;;;;;;7.39;100.00;101715.75;5002616;28;20038;-79
2022/04/15 01:32:30;;;;;;;21.42;11.55;;;;;;;7.41;100.00;101711.16;5021167;28;20033;-79
2022/04/15 01:34:56;;;;;;;24.23;12.13;;;;;;;7.39;100.00;101716.59;5017899;28;20038;-78
2022/04/15 01:37:23;;;;;;;25.87;12.37;;;;;;;7.49;100.00;101718.53;4999318;28;20033;-79
2022/04/15 01:39:49;;;;;;;26.40;12.45;;;;;;;7.44;100.00;101718.91;5009730;28;20332;-79
2022/04/15 01:42:15;;;;;;;28.27;12.07;;;;;;;7.31;100.00;101712.84;5009926;28;20041;-77
2022/04/15 01:44:41;;;;;;;26.75;13.10;;;;;;;7.36;100.00;101723.97;5002298;28;20045;-79
2022/04/15 01:47:07;;;;;;;;;;;;;;;7.38;100.00;101728.19;5017873;28;20021;-79
2022/04/15 01:49:32;;;;;;;30.48;14.45;;;;;;;7.32;100.00;101722.50;5014737;28;19918;-79
2022/04/15 01:51:57;;;;;;;27.80;13.57;;;;;;;7.25;100.00;101715.97;5015629;28;20065;-79
2022/04/15 01:54:23;;;;;;;24.67;13.40;;;;;;;7.30;100.00;101714.63;5001755;28;20040;-79
2022/04/15 01:56:48;;;;;;;22.73;13.23;;;;;;;7.25;100.00;101711.50;5018299;28;20060;-79
2022/04/15 01:59:14;;;;;;;28.73;14.60;;;;;;;7.27;100.00;101722.84;5007103;28;20470;-79
2022/04/15 02:01:39;;;;;;;25.80;13.00;;;;;;;7.21;100.00;101727.78;4998207;28;20033;-78
2022/04/15 02:04:05;;;;;;;25.60;13.40;;;;;;;7.20;100.00;101724.28;5016866;28;20465;-77
2022/04/15 02:06:30;;;;;;;29.13;13.83;;;;;;;7.19;100.00;101734.06;5018618;28;20032;-78
2022/04/15 02:08:56;;;;;;;26.00;13.63;;;;;;;7.20;100.00;101740.22;5009513;28;20034;-78
2022/04/15 02:11:21;;;;;;;26.87;12.67;;;;;;;7.29;100.00;101742.19;5017588;28;20545;-79
2022/04/15 02:13:46;;;;;;;27.63;14.50;;;;;;;7.19;100.00;101734.06;5000085;28;20034;-78
2022/04/15 02:16:12;;;;;;;31.10;13.60;;;;;;;7.13;100.00;101747.81;5020460;28;20092;-79
2022/04/15 02:18:38;;;;;;;22.95;13.20;;;;;;;7.15;100.00;101751.19;5013342;28;20450;-79
2022/04/15 02:21:03;;;;;;;24.87;13.80;;;;;;;7.17;100.00;101751.94;4999239;28;20144;-79
2022/04/15 02:23:29;;;;;;;24.43;13.97;;;;;;;7.06;100.00;101743.91;5017782;28;20038;-79
2022/04/15 02:25:54;;;;;;;27.47;13.63;;;;;;;7.13;100.00;101753.13;5021084;28;20283;-77
2022/04/15 02:28:19;;;;;;;25.37;13.07;;;;;;;7.20;100.00;101758.81;4998295;28;20133;-78
2022/04/15 02:30:47;;;;;;;28.37;13.93;;;;;;;7.17;100.00;101762.56;5014494;28;20483;-78
2022/04/15 02:33:14;;;;;;;27.90;14.32;;;;;;;7.19;100.00;101757.97;5020320;28;20045;-78
2022/04/15 02:35:39;;;;;;;;;;;;;;;7.23;100.00;101763.88;4997580;28;20514;-77
2022/04/15 02:38:04;;;;;;;;;;;;;;;7.19;100.00;101760.63;5025171;28;19952;-79
2022/04/15 02:40:30;;;;;;;25.00;13.40;;;;;;;7.26;100.00;101774.28;5031122;28;20003;-79
2022/04/15 02:42:55;;;;;;;28.20;14.90;;;;;;;7.17;100.00;101767.88;5019827;28;20453;-79
2022/04/15 02:45:21;;;;;;;30.93;14.97;;;;;;;7.16;100.00;101765.31;4998171;28;20395;-80
2022/04/15 02:47:47;;;;;;;27.27;13.23;;;;;;;7.27;100.00;101764.50;5021268;28;20059;-79
2022/04/15 02:50:13;;;;;;;29.50;15.95;;;;;;;7.17;100.00;101757.25;5014802;28;20033;-79
2022/04/15 02:52:38;;;;;;;29.85;15.52;;;;;;;7.12;100.00;101764.72;5016973;28;20033;-79
2022/04/15 02:55:04;;;;;;;27.10;14.63;;;;;;;7.12;100.00;101774.50;5020150;28;20029;-79
2022/04/15 02:57:30;;;;;;;33.53;17.02;;;;;;;7.07;100.00;101772.19;5006302;28;20060;-79
2022/04/15 02:59:55;;;;;;;28.97;14.73;;;;;;;7.15;100.00;101784.88;5020778;28;20026;-79
2022/04/15 03:02:20;;;;;;;27.63;15.93;;;;;;;7.13;100.00;101782.31;5006846;28;20029;-79
2022/04/15 03:04:46;;;;;;;27.63;15.37;;;;;;;7.07;100.00;101785.47;5031318;28;20026;-79
2022/04/15 03:07:11;;;;;;;38.20;16.00;;;;;;;7.13;100.00;101787.63;5020560;28;20057;-79
2022/04/15 03:09:37;;;;;;;29.47;15.37;;;;;;;7.11;100.00;101784.25;5020082;28;20026;-78
2022/04/15 03:12:02;;;;;;;25.83;15.15;;;;;;;7.14;100.00;101778.72;5003261;28;20096;-79
2022/04/15 03:14:28;;;;;;;32.90;15.88;;;;;;;7.15;100.00;101787.53;5016825;28;20034;-79
2022/04/15 03:16:53;;;;;;;24.40;15.37;;;;;;;7.08;100.00;101781.00;5015655;28;20319;-80
2022/04/15 03:19:18;;;;;;;31.00;15.20;;;;;;;7.08;100.00;101788.97;5023790;28;20029;-78
2022/04/15 03:21:44;;;;;;;26.37;15.27;;;;;;;7.07;100.00;101788.13;5021438;28;20041;-78
2022/04/15 03:24:09;;;;;;;27.17;14.23;;;;;;;7.12;100.00;101790.44;5025862;28;20029;-79
2022/04/15 03:26:34;;;;;;;26.57;16.47;;;;;;;7.04;100.00;101793.63;5020569;28;20077;-78
2022/04/15 03:29:00;;;;;;;31.13;15.27;;;;;;;7.06;100.00;101807.66;5010662;28;20026;-79
2022/04/15 03:31:25;;;;;;;25.63;14.87;;;;;;;7.16;100.00;101807.81;5023772;28;20477;-79
2022/04/15 03:33:51;;;;;;;27.60;14.88;;;;;;;7.07;100.00;101796.06;5006525;28;20025;-79
2022/04/15 03:36:16;;;;;;;27.85;14.80;;;;;;;7.04;100.00;101804.25;5024507;28;20281;-80
2022/04/15 03:38:42;;;;;;;28.97;16.27;;;;;;;7.11;100.00;101805.50;5014984;28;20409;-80
2022/04/15 03:41:08;;;;;;;29.10;15.40;;;;;;;7.08;100.00;101808.38;5011189;28;20044;-80
2022/04/15 03:43:33;;;;;;;25.95;15.10;;;;;;;7.09;100.00;101806.56;5028857;28;20112;-78
2022/04/15 03:45:59;;;;;;;27.83;14.93;;;;;;;7.16;100.00;101816.66;5026954;28;20596;-79
2022/04/15 03:48:25;;;;;;;28.90;15.45;;;;;;;7.10;100.00;101814.44;5028684;28;20603;-79
2022/04/15 03:50:51;;;;;;;39.10;17.55;;;;;;;6.98;100.00;101808.22;5026176;28;20434;-79
2022/04/15 03:53:16;;;;;;;31.02;15.95;;;;;;;7.01;100.00;101804.50;5014738;28;20398;-79
2022/04/15 03:55:42;;;;;;;27.77;14.93;;;;;;;7.08;100.00;101811.03;5021641;28;20033;-78
2022/04/15 03:58:07;;;;;;;31.10;16.40;;;;;;;6.94;100.00;101801.44;5020743;28;20018;-78
2022/04/15 04:00:33;;;;;;;31.50;16.00;;;;;;;7.00;100.00;101816.09;5016239;28;20383;-78
2022/04/15 04:02:58;;;;;;;36.83;18.23;;;;;;;6.92;100.00;101813.97;5020399;28;20030;-78
2022/04/15 04:05:23;;;;;;;36.53;17.47;;;;;;;7.02;100.00;101815.94;5005311;28;20037;-78
2022/04/15 04:07:49;;;;;;;32.33;16.73;;;;;;;7.00;100.00;101818.75;5006596;28;20030;-77
2022/04/15 04:10:15;;;;;;;38.30;19.88;;;;;;;6.90;100.00;101830.97;5008686;28;20457;-78
2022/04/15 04:12:42;;;;;;;35.55;19.52;;;;;;;6.91;100.00;101830.03;5027678;28;20076;-78
2022/04/15 04:15:10;;;;;;;37.10;18.35;;;;;;;6.89;100.00;101827.47;5022718;28;20038;-78
2022/04/15 04:17:35;;;;;;;42.63;19.42;;;;;;;6.83;100.00;101829.72;5022252;28;20029;-79
2022/04/15 04:20:01;;;;;;;44.72;20.75;;;;;;;6.84;100.00;101836.75;5020452;28;20509;-79
2022/04/15 04:22:28;;;;;;;35.78;18.38;;;;;;;6.86;100.00;101832.16;5022973;28;20386;-79
2022/04/15 04:24:53;;;;;;;;;;;;;;;7.01;100.00;101841.66;5005500;28;20060;-79
2022/04/15 04:27:19;;;;;;;;;;;;;;;6.97;100.00;101840.19;5024187;28;20362;-78
2022/04/15 04:29:44;;;;;;;41.97;17.20;;;;;;;6.95;100.00;101842.97;5012373;28;20003;-78
2022/04/15 04:32:09;;;;;;;41.73;19.20;;;;;;;7.00;100.00;101844.41;5024327;28;20049;-78
2022/04/15 04:34:35;;;;;;;39.97;20.00;;;;;;;6.96;100.00;101855.28;5018279;28;20038;-78
2022/04/15 04:37:00;;;;;;;47.07;20.90;;;;;;;6.93;100.00;101852.84;5008887;28;20036;-78
2022/04/15 04:39:28;;;;;;;56.23;23.60;;;;;;;6.81;100.00;101850.22;5036129;28;20487;-79
2022/04/15 04:41:53;;;;;;;48.70;24.63;;;;;;;6.75;100.00;101857.69;5018746;28;20034;-79
2022/04/15 04:44:19;;;;;;;50.90;23.50;;;;;;;6.69;100.00;101866.06;5029395;28;20041;-78
2022/04/15 04:46:44;;;;;;;50.25;22.67;;;;;;;6.74;100.00;101866.59;5026569;28;20044;-78
2022/04/15 04:49:10;;;;;;;46.17;20.60;;;;;;;6.64;100.00;101859.41;5019757;28;20140;-78
2022/04/15 04:51:35;;;;;;;46.47;21.70;;;;;;;6.61;100.00;101860.47;5035251;28;20483;-79
2022/04/15 04:54:01;;;;;;;45.30;20.08;;;;;;;6.64;100.00;101870.03;5010288;28;20277;-78
2022/04/15 04:56:26;;;;;;;45.30;21.10;;;;;;;6.65;100.00;101872.56;5020758;28;20026;-78
2022/04/15 04:58:52;;;;;;;41.65;19.13;;;;;;;6.70;100.00;101874.91;5019246;28;20037;-77
2022/04/15 05:01:17;;;;;;;40.07;19.17;;;;;;;6.68;100.00;101876.81;5004823;28;20036;-79
2022/04/15 05:03:43;;;;;;;39.93;19.77;;;;;;;6.66;100.00;101878.72;5022907;28;20702;-78
2022/04/15 05:06:08;;;;;;;36.33;17.97;;;;;;;6.72;100.00;101889.75;5002093;28;20057;-79
2022/04/15 05:08:33;;;;;;;33.50;17.27;;;;;;;6.72;100.00;101879.13;5023093;28;20041;-79
2022/04/15 05:10:59;;;;;;;41.10;19.30;;;;;;;6.72;100.00;101884.44;5020536;28;20125;-79
2022/04/15 05:13:25;;;;;;;37.28;17.35;;;;;;;6.76;100.00;101874.44;5039567;28;20044;-79
2022/04/15 05:15:50;;;;;;;36.10;18.60;;;;;;;6.72;100.00;101881.78;4995998;28;20036;-79
2022/04/15 05:18:16;;;;;;;35.60;15.80;;;;;;;6.68;100.00;101879.47;5022620;28;20040;-78
2022/04/15 05:20:41;;;;;;;32.75;18.05;;;;;;;6.68;100.00;101877.66;5020784;28;20387;-79
2022/04/15 05:23:06;;;;;;;35.57;17.80;;;;;;;6.57;100.00;101882.88;5023909;28;20049;-78
2022/04/15 05:25:32;;;;;;;38.33;18.43;;;;;;;6.66;100.00;101889.34;5018780;28;20029;-78
2022/04/15 05:27:58;;;;;;;36.77;17.43;;;;;;;6.57;100.00;101880.22;5019745;28;20034;-79
2022/04/15 05:30:24;;;;;;;41.45;19.55;;;;;;;6.63;100.00;101895.72;5021404;28;20787;-79
2022/04/15 05:32:49;;;;;;;42.35;20.27;;;;;;;6.63;100.00;101900.19;5022064;28;20037;-79
2022/04/15 05:35:15;;;;;;;40.03;19.03;;;;;;;6.74;100.00;101898.47;5008001;28;20040;-78
2022/04/15 05:37:40;;;;;;;46.40;19.67;;;;;;;6.65;100.00;101900.91;5018713;28;20041;-79
2022/04/15 05:40:06;;;;;;;38.47;20.40;;;;;;;6.68;100.00;101898.88;5026090;28;20703;-78
2022/04/15 05:42:32;;;;;;;37.00;20.15;;;;;;;6.65;100.00;101912.38;5015167;28;20512;-78
2022/04/15 05:44:58;;;;;;;40.63;19.00;;;;;;;6.72;100.00;101916.28;5019559;28;20056;-78
2022/04/15 05:47:23;;;;;;;;;;;;;;;6.66;100.00;101926.50;5014457;28;20203;-78
2022/04/15 05:49:48;;;;;;;;;;;;;;;6.63;100.00;101935.53;5009604;28;20016;-78
2022/04/15 05:52:14;;;;;;;42.93;20.47;;;;;;;6.58;100.00;101939.44;5023054;28;19921;-79
2022/04/15 05:54:39;;;;;;;40.53;19.20;;;;;;;6.56;100.00;101939.56;5017489;28;20052;-78
2022/04/15 05:57:06;;;;;;;47.80;20.77;;;;;;;6.58;100.00;101945.63;5018346;28;20657;-79
2022/04/15 05:59:31;;;;;;;46.35;21.67;;;;;;;6.61;100.00;101950.69;5004940;28;20276;-78
2022/04/15 06:01:56;;;;;;;40.90;19.00;;;;;;;6.59;100.00;101959.72;5016691;28;20037;-79
2022/04/15 06:04:22;;;;;;;50.57;22.60;;;;;;;6.64;100.00;101961.09;5004574;28;20059;-78
2022/04/15 06:06:47;;;;;;;46.33;23.07;;;;;;;6.72;100.00;101966.72;5020433;28;20041;-78
2022/04/15 06:09:14;;;;;;;49.90;22.43;;;;;;;6.72;100.00;101964.06;5008857;28;20144;-79
2022/04/15 06:11:41;;;;;;;43.38;21.48;;;;;;;6.73;100.00;101972.88;5015706;28;20129;-78
2022/04/15 06:14:07;;;;;;;46.97;22.35;;;;;;;6.72;100.00;101980.00;5018378;28;20037;-79
2022/04/15 06:16:33;;;;;;;;;;;;;;;6.78;100.00;101985.81;5023704;28;20034;-79
2022/04/15 06:19:01;;;;;;;;;;;;;;;6.72;100.00;101982.66;5016549;28;20718;-79
2022/04/15 06:21:26;;;;;;;50.50;21.83;;;;;;;6.63;100.00;101979.78;5022719;28;19939;-80
2022/04/15 06:23:53;;;;;;;54.97;23.87;;;;;;;6.61;100.00;101987.84;5025722;28;20487;-80
2022/04/15 06:26:19;;;;;;;50.05;23.15;;;;;;;6.73;100.00;102002.91;5029748;28;20814;-78
2022/04/15 06:28:44;;;;;;;56.70;23.42;;;;;;;6.65;100.00;102001.75;5036419;28;20044;-78
2022/04/15 06:31:10;;;;;;;58.23;23.07;;;;;;;6.61;100.00;102009.06;5049823;28;20047;-79
2022/04/15 06:33:37;;;;;;;47.67;21.87;;;;;;;6.65;100.00;102010.56;5018057;28;20033;-80
2022/04/15 06:36:03;;;;;;;56.75;24.13;;;;;;;6.62;100.00;102005.47;5032736;28;20054;-80
2022/04/15 06:38:29;;;;;;;56.25;24.38;;;;;;;6.74;100.00;102009.94;5018874;28;20060;-78
2022/04/15 06:40:54;;;;;;;64.32;24.90;;;;;;;6.76;100.00;102021.28;5010464;28;20034;-78
2022/04/15 06:43:20;;;;;;;59.63;24.33;;;;;;;6.83;100.00;102023.50;5034618;28;20037;-80
2022/04/15 06:45:45;;;;;;;64.33;25.23;;;;;;;6.82;100.00;102027.13;5036511;28;20061;-78
2022/04/15 06:48:10;;;;;;;63.60;26.07;;;;;;;6.93;100.00;102029.88;5032189;28;20157;-80
2022/04/15 06:50:36;;;;;;;53.63;22.97;;;;;;;7.09;100.00;102038.44;5034132;28;20699;-78
2022/04/15 06:53:01;;;;;;;55.83;23.93;;;;;;;7.00;100.00;102024.97;5014856;28;20027;-78
2022/04/15 06:55:27;;;;;;;57.00;23.93;;;;;;;6.88;100.00;102037.31;5031644;28;20033;-78
2022/04/15 06:57:52;;;;;;;59.30;25.47;;;;;;;6.86;100.00;102031.25;5032587;28;20265;-78
2022/04/15 07:00:18;;;;;;;67.63;23.83;;;;;;;6.86;100.00;102033.91;5030816;28;20033;-79
2022/04/15 07:02:44;;;;;;;59.67;25.75;;;;;;;6.94;100.00;102051.00;5014128;28;20044;-77
2022/04/15 07:05:09;;;;;;;64.53;24.20;;;;;;;6.86;100.00;102041.88;5034863;28;20052;-78
2022/04/15 07:07:39;;;;;;;64.75;25.63;;;;;;;6.80;100.00;102051.13;5033520;28;20033;-79
2022/04/15 07:10:06;;;;;;;63.78;23.65;;;;;;;6.79;100.00;102049.44;5030668;28;20038;-78
2022/04/15 07:12:32;;;;;;;70.78;27.70;;;;;;;6.86;100.00;102060.44;5016594;28;20053;-78
2022/04/15 07:14:58;;;;;;;67.10;24.45;;;;;;;6.75;100.00;102067.38;5018081;28;20064;-79
2022/04/15 07:17:24;;;;;;;72.18;28.23;;;;;;;6.86;100.00;102066.63;5030368;28;20035;-79
2022/04/15 07:19:49;;;;;;;64.68;25.48;;;;;;;6.80;100.00;102068.84;5047849;28;20397;-78
2022/04/15 07:22:19;;;;;;;69.72;27.23;;;;;;;6.80;100.00;102076.81;5010915;28;20030;-78
2022/04/15 07:24:45;;;;;;;74.78;25.75;;;;;;;6.75;100.00;102059.41;5029167;28;20038;-78
2022/04/15 07:27:11;;;;;;;68.97;26.48;;;;;;;6.92;100.00;102078.63;5030453;28;20393;-79
2022/04/15 07:29:36;;;;;;;65.85;25.95;;;;;;;6.96;100.00;102077.47;5032561;28;20037;-79
2022/04/15 07:32:02;;;;;;;65.95;25.00;;;;;;;6.92;100.00;102090.09;5033781;28;20034;-79
2022/04/15 07:34:28;;;;;;;76.45;27.05;;;;;;;6.83;100.00;102076.59;5006096;28;20446;-78
2022/04/15 07:36:54;;;;;;;70.00;25.20;;;;;;;6.94;100.00;102084.69;5008893;28;20124;-79
2022/04/15 07:39:19;;;;;;;66.40;24.58;;;;;;;6.93;100.00;102088.28;5018016;28;20125;-77
2022/04/15 07:41:45;;;;;;;54.58;24.15;;;;;;;6.84;100.00;102091.59;5000617;28;20034;-79
2022/04/15 07:44:11;;;;;;;68.15;25.05;;;;;;;6.75;100.00;102085.94;5021563;28;20047;-79
2022/04/15 07:46:38;;;;;;;63.10;25.27;;;;;;;6.82;100.00;102091.69;5023673;28;20101;-78
2022/04/15 07:49:04;;;;;;;66.30;26.70;;;;;;;6.80;100.00;102096.25;5028602;28;20148;-77
2022/04/15 07:51:30;;;;;;;71.55;24.40;;;;;;;6.80;100.00;102093.59;5024414;28;20052;-79
2022/04/15 07:53:56;;;;;;;;;;;;;;;6.89;100.00;102100.94;5019637;28;20046;-80
2022/04/15 07:56:21;;;;;;;;;;;;;;;6.94;100.00;102100.63;5020784;28;19920;-78
2022/04/15 07:58:46;;;;;;;56.47;21.27;;;;;;;6.74;100.00;102099.31;5034829;28;20370;-79
2022/04/15 08:01:12;;;;;;;61.33;23.73;;;;;;;6.83;100.00;102106.66;5024550;28;20071;-79
2022/04/15 08:03:39;;;;;;;66.40;26.33;;;;;;;6.75;100.00;102109.00;5004428;28;20030;-78
2022/04/15 08:06:05;;;;;;;57.33;23.02;;;;;;;6.81;100.00;102120.97;5028628;28;20510;-79
2022/04/15 08:08:31;;;;;;;61.90;22.95;;;;;;;6.79;100.00;102123.75;5005224;28;20029;-79
2022/04/15 08:10:57;;;;;;;51.87;20.47;;;;;;;6.74;100.00;102125.84;5003890;28;20083;-78
2022/04/15 08:13:23;;;;;;;;;;;;;;;6.87;100.00;102131.19;4998068;28;20095;-78
2022/04/15 08:15:53;;;;;;;53.00;21.45;;;;;;;6.72;100.00;102123.31;5024637;28;19979;-76
2022/04/15 08:18:21;;;;;;;51.65;21.73;;;;;;;6.78;100.00;102129.16;5013116;28;21040;-78
2022/04/15 08:20:47;;;;;;;52.55;20.23;;;;;;;6.74;100.00;102139.13;5019145;28;20498;-79
2022/04/15 08:23:13;;;;;;;47.58;20.77;;;;;;;6.73;100.00;102130.31;5024477;28;20037;-79
2022/04/15 08:25:39;;;;;;;41.47;19.00;;;;;;;6.72;100.00;102144.56;5021054;28;20368;-78
2022/04/15 08:28:05;;;;;;;48.80;19.10;;;;;;;6.91;100.00;102144.16;5011028;28;20042;-78
2022/04/15 08:30:33;;;;;;;34.83;16.85;;;;;;;6.85;100.00;102157.00;5006878;28;20033;-79
2022/04/15 08:32:59;;;;;;;49.95;18.10;;;;;;;6.72;100.00;102152.53;5003151;28;20434;-79
2022/04/15 08:35:26;;;;;;;44.20;17.23;;;;;;;6.82;100.00;102149.25;5023266;28;20030;-79
2022/04/15 08:37:53;;;;;;;36.05;15.95;;;;;;;6.75;100.00;102160.25;5008532;28;20034;-80
2022/04/15 08:40:18;;;;;;;;;;;;;;;6.83;100.00;102169.50;5009162;28;20024;-79
2022/04/15 08:42:44;;;;;;;33.47;15.77;;;;;;;6.80;100.00;102165.25;5023910;28;19917;-78
2022/04/15 08:45:10;;;;;;;32.30;13.45;;;;;;;6.71;100.00;102172.03;5026038;28;20476;-78
2022/04/15 08:47:36;;;;;;;34.03;15.93;;;;;;;6.80;100.00;102178.53;5012354;28;20045;-80
2022/04/15 08:50:03;;;;;;;35.10;16.00;;;;;;;6.79;100.00;102178.63;5002933;28;20032;-79
2022/04/15 08:52:29;;;;;;;30.23;14.32;;;;;;;6.84;100.00;102168.59;5003045;28;20585;-77
2022/04/15 08:54:55;;;;;;;25.48;12.93;;;;;;;6.86;100.00;102187.88;5003653;28;20036;-80
2022/04/15 08:57:20;;;;;;;30.93;14.30;;;;;;;6.87;100.00;102178.97;5000712;28;20034;-79
2022/04/15 08:59:46;;;;;;;30.43;13.93;;;;;;;6.83;100.00;102190.75;5017257;28;20464;-79
2022/04/15 09:02:14;;;;;;;29.90;14.07;;;;;;;6.93;100.00;102197.13;5019097;28;20033;-79
2022/04/15 09:04:39;;;;;;;30.42;14.52;;;;;;;7.02;100.00;102199.16;5024225;28;20025;-78
2022/04/15 09:07:05;;;;;;;25.02;13.50;;;;;;;6.94;100.00;102191.72;5018387;28;20133;-78
2022/04/15 09:09:32;;;;;;;24.38;12.65;;;;;;;7.13;100.00;102206.41;5014433;28;20037;-80
2022/04/15 09:11:58;;;;;;;;;;;;;;;6.92;100.00;102203.41;5020752;28;20049;-80
2022/04/15 09:14:25;;;;;;;29.92;13.27;;;;;;;6.92;100.00;102208.72;5015720;28;19975;-78
2022/04/15 09:16:50;;;;;;;;;;;;;;;6.94;100.00;102212.13;4999749;28;20041;-79
2022/04/15 09:19:16;;;;;;;;;;;;;;;6.95;100.00;102213.81;5043722;28;19914;-80
2022/04/15 09:21:56;;;;;;;29.40;13.30;;;;;;;6.97;100.00;102227.84;5018221;28;20437;-79
2022/04/15 09:24:31;;;;;;;30.42;13.15;;;;;;;7.01;100.00;102234.66;5012539;28;20128;-80
2022/04/15 09:26:57;;;;;;;34.88;15.85;;;;;;;6.97;100.00;102241.13;5002744;28;20038;-80
2022/04/15 09:29:25;;;;;;;39.33;17.60;;;;;;;6.84;100.00;102232.28;5023013;28;20024;-80
2022/04/15 09:31:56;;;;;;;30.58;14.50;;;;;;;6.88;100.00;102239.06;5005246;28;20136;-82
2022/04/15 09:34:21;;;;;;;33.33;13.75;;;;;;;6.86;100.00;102246.28;5020742;28;20048;-80
2022/04/15 09:36:47;;;;;;;37.07;15.23;;;;;;;6.85;100.00;102249.91;5018014;28;20038;-80
2022/04/15 09:39:17;;;;;;;33.75;15.40;;;;;;;6.93;100.00;102250.25;5023759;28;20083;-78
2022/04/15 09:41:51;;;;;;;33.28;14.43;;;;;;;6.88;100.00;102252.34;5010687;28;20041;-80
2022/04/15 09:44:16;;;;;;;32.28;15.68;;;;;;;7.00;100.00;102256.00;5022796;28;20764;-81
2022/04/15 09:46:44;;;;;;;38.20;16.77;;;;;;;7.00;100.00;102251.56;5033629;28;20049;-80
2022/04/15 09:49:11;;;;;;;40.33;16.15;;;;;;;6.96;100.00;102263.34;5020271;28;20042;-79
2022/04/15 09:51:39;;;;;;;38.92;16.77;;;;;;;6.93;100.00;102264.38;5022081;28;20103;-81
2022/04/15 09:54:07;;;;;;;41.67;17.10;;;;;;;6.81;100.00;102256.38;5018894;28;20040;-80
2022/04/15 09:56:34;;;;;;;45.72;16.70;;;;;;;6.87;100.00;102262.13;5003387;28;20021;-79
2022/04/15 09:59:05;;;;;;;47.10;18.67;;;;;;;6.91;100.00;102265.44;5002993;28;20124;-81
2022/04/15 10:01:33;;;;;;;39.00;15.27;;;;;;;6.93;100.00;102266.16;5016599;28;20084;-81
2022/04/15 10:03:59;;;;;;;43.78;16.95;;;;;;;6.92;100.00;102280.41;5003396;28;20025;-81
2022/04/15 10:06:25;;;;;;;;;;;;;;;6.94;100.00;102286.47;5008075;28;20064;-80
2022/04/15 10:08:52;;;;;;;38.53;16.70;;;;;;;7.03;100.00;102290.34;5029225;28;19944;-79
2022/04/15 10:11:18;;;;;;;45.13;17.27;;;;;;;6.96;100.00;102281.91;5021420;28;20103;-80
2022/04/15 10:13:45;;;;;;;50.60;17.58;;;;;;;7.07;100.00;102292.69;5006196;28;20099;-78
2022/04/15 10:16:11;;;;;;;47.65;18.50;;;;;;;6.95;100.00;102294.34;5026817;28;20101;-81
2022/04/15 10:18:37;;;;;;;47.88;18.35;;;;;;;6.86;100.00;102280.81;5010546;28;20658;-82
2022/04/15 10:21:05;;;;;;;51.70;18.20;;;;;;;6.89;100.00;102300.06;5003348;28;20129;-80
2022/04/15 10:23:31;;;;;;;47.60;18.35;;;;;;;7.04;100.00;102297.34;5021332;28;20029;-79
2022/04/15 10:26:00;;;;;;;48.47;21.05;;;;;;;7.09;100.00;102289.91;5006139;28;20069;-80
2022/04/15 10:28:53;;;;;;;53.83;20.42;;;;;;;7.21;100.00;102294.44;5007917;28;20604;-79
2022/04/15 10:31:18;;;;;;;52.20;17.92;;;;;;;7.22;100.00;102295.28;5004662;28;20049;-78
2022/04/15 10:33:49;;;;;;;56.87;19.77;;;;;;;7.04;100.00;102292.88;5005454;28;20099;-76
2022/04/15 10:36:25;;;;;;;47.75;18.02;;;;;;;7.06;100.00;102298.94;5022456;28;20042;-80
2022/04/15 10:39:06;;;;;;;54.63;18.60;;;;;;;7.18;100.00;102306.06;5005155;28;20029;-77
2022/04/15 10:41:40;;;;;;;46.95;20.27;;;;;;;7.36;100.00;102313.78;5001196;28;20041;-80
2022/04/15 10:44:06;;;;;;;48.00;20.50;;;;;;;7.39;100.00;102311.75;5020853;28;20041;-79
2022/04/15 10:46:36;;;;;;;44.85;18.05;;;;;;;7.35;100.00;102312.06;5006278;28;20029;-78
2022/04/15 10:49:19;;;;;;;45.00;17.92;;;;;;;7.30;100.00;102314.19;5003682;28;20057;-78
2022/04/15 10:51:45;;;;;;;43.92;17.52;;;;;;;7.30;100.00;102314.19;5014903;28;20044;-79
2022/04/15 10:54:35;;;;;;;48.97;17.70;;;;;;;7.32;100.00;102322.91;5018577;28;20025;-80
2022/04/15 10:57:03;;;;;;;37.15;15.43;;;;;;;7.26;100.00;102323.31;5009264;28;20447;-78
2022/04/15 11:02:18;;;;;;;38.10;17.33;;;;;;;7.26;100.00;102328.63;5021451;28;20091;-80
2022/04/15 11:04:52;;;;;;;39.00;16.60;;;;;;;7.29;100.00;102337.25;5019542;28;20116;-77
2022/04/15 11:07:29;;;;;;;39.60;17.05;;;;;;;7.32;100.00;102336.19;5011265;28;20034;-80
2022/04/15 11:09:55;;;;;;;34.00;15.68;;;;;;;7.34;100.00;102342.25;5019818;28;20030;-78
2022/04/15 11:12:44;;;;;;;37.35;16.00;;;;;;;7.50;100.00;102337.63;5005790;28;20022;-78
2022/04/15 11:15:11;;;;;;;40.88;14.75;;;;;;;7.48;100.00;102336.88;5027060;28;20042;-80